createdAt,value
2023-01-30T00:01:29.006Z,101418.50
2023-01-30T00:03:57.185Z,101418.34
2023-01-30T00:06:26.584Z,101421.44
2023-01-30T00:08:54.554Z,101420.78
2023-01-30T00:11:22.959Z,101414.63
2023-01-30T00:13:51.987Z,101413.78
2023-01-30T00:16:20.336Z,101412.66
2023-01-30T00:18:48.379Z,101410.03
2023-01-30T00:21:16.757Z,101399.97
2023-01-30T00:23:45.349Z,101398.91
2023-01-30T00:26:14.231Z,101394.06
2023-01-30T00:28:43.662Z,101395.16
2023-01-30T00:31:12.044Z,101391.91
2023-01-30T00:33:40.053Z,101395.59
2023-01-30T00:36:10.207Z,101387.34
2023-01-30T00:38:38.904Z,101391.78
2023-01-30T00:41:11.039Z,101389.31
2023-01-30T00:43:57.466Z,101384.53
2023-01-30T00:46:52.986Z,101379.81
2023-01-30T00:49:21.573Z,101384.00
2023-01-30T00:51:51.936Z,101375.41
2023-01-30T00:54:19.866Z,101377.88
2023-01-30T00:56:49.037Z,101371.19
2023-01-30T01:53:27.348Z,101325.38
2023-01-30T01:55:58.849Z,101316.63
2023-01-30T01:58:35.975Z,101323.25
2023-01-30T02:01:05.061Z,101323.75
2023-01-30T02:03:38.132Z,101314.91
2023-01-30T02:06:08.534Z,101319.19
2023-01-30T02:08:43.717Z,101317.75
2023-01-30T02:11:35.247Z,101312.44
2023-01-30T02:14:07.559Z,101306.56
2023-01-30T02:16:37.866Z,101306.72
2023-01-30T02:19:26.298Z,101303.38
2023-01-30T02:22:16.347Z,101308.34
2023-01-30T02:25:09.099Z,101300.28
2023-01-30T02:28:03.729Z,101301.63
2023-01-30T02:31:02.107Z,101290.91
2023-01-30T02:33:44.926Z,101293.97
2023-01-30T02:36:18.822Z,101294.28
2023-01-30T02:39:25.937Z,101294.69
2023-01-30T02:42:12.251Z,101301.88
2023-01-30T02:45:06.719Z,101284.88
2023-01-30T02:47:38.282Z,101286.63
2023-01-30T02:50:54.459Z,101289.09
2023-01-30T02:53:22.821Z,101288.91
2023-01-30T02:55:51.317Z,101285.66
2023-01-30T02:58:24.537Z,101280.94
2023-01-30T03:01:08.002Z,101282.91
2023-01-30T03:03:36.008Z,101275.63
2023-01-30T03:06:10.208Z,101264.09
2023-01-30T03:09:10.251Z,101258.91
2023-01-30T03:12:02.791Z,101259.50
2023-01-30T03:14:52.067Z,101245.06
2023-01-30T03:17:23.596Z,101247.56
2023-01-30T03:19:55.545Z,101243.19
2023-01-30T03:22:23.921Z,101236.50
2023-01-30T03:24:54.102Z,101243.34
2023-01-30T03:27:23.282Z,101241.75
2023-01-30T03:29:51.298Z,101231.84
2023-01-30T03:32:19.693Z,101232.00
2023-01-30T03:34:48.134Z,101225.97
2023-01-30T03:37:16.609Z,101226.25
2023-01-30T03:39:44.697Z,101227.38
2023-01-30T03:42:16.983Z,101224.69
2023-01-30T03:44:45.060Z,101223.19
2023-01-30T03:47:14.839Z,101221.91
2023-01-30T03:49:43.278Z,101225.66
2023-01-30T03:52:13.006Z,101219.28
2023-01-30T03:54:41.046Z,101212.97
2023-01-30T03:57:10.007Z,101207.50
2023-01-30T03:59:38.101Z,101212.19
2023-01-30T04:02:10.425Z,101208.34
2023-01-30T04:04:38.552Z,101206.59
2023-01-30T04:07:10.067Z,101203.56
2023-01-30T04:09:40.399Z,101202.22
2023-01-30T04:12:10.427Z,101199.28
2023-01-30T04:14:45.019Z,101198.16
2023-01-30T04:17:31.817Z,101186.28
2023-01-30T04:20:33.900Z,101181.81
2023-01-30T04:23:02.692Z,101180.50
2023-01-30T04:25:32.194Z,101187.81
2023-01-30T04:28:01.881Z,101181.81
2023-01-30T04:30:35.065Z,101173.66
2023-01-30T04:33:22.128Z,101179.81
2023-01-30T04:35:54.307Z,101173.75
2023-01-30T04:38:25.101Z,101170.16
2023-01-30T04:40:56.574Z,101169.13
2023-01-30T04:43:29.174Z,101161.34
2023-01-30T04:46:15.642Z,101153.16
2023-01-30T04:48:44.286Z,101152.03
2023-01-30T04:51:12.663Z,101151.53
2023-01-30T04:53:40.967Z,101147.22
2023-01-30T04:56:09.890Z,101145.66
2023-01-30T04:58:39.396Z,101137.50
2023-01-30T05:01:14.355Z,101143.88
2023-01-30T05:03:42.864Z,101145.66
2023-01-30T05:06:10.958Z,101142.41
2023-01-30T05:08:40.633Z,101145.25
2023-01-30T05:11:08.548Z,101140.94
2023-01-30T05:13:36.844Z,101134.84
2023-01-30T05:16:05.062Z,101139.69
2023-01-30T05:18:34.285Z,101137.19
2023-01-30T05:21:23.755Z,101141.22
2023-01-30T05:23:55.800Z,101139.41
2023-01-30T05:26:25.296Z,101144.09
2023-01-30T05:28:58.166Z,101153.28
2023-01-30T05:31:26.312Z,101158.78
2023-01-30T05:33:54.667Z,101161.41
2023-01-30T05:36:24.261Z,101153.53
2023-01-30T05:38:52.672Z,101159.13
2023-01-30T05:41:20.572Z,101157.50
2023-01-30T05:43:52.026Z,101161.72
2023-01-30T05:46:20.332Z,101153.75
2023-01-30T05:48:48.747Z,101155.66
2023-01-30T05:51:23.080Z,101159.94
2023-01-30T05:53:53.277Z,101169.94
2023-01-30T05:56:21.346Z,101170.31
2023-01-30T05:58:56.772Z,101176.16
2023-01-30T06:01:25.394Z,101178.16
2023-01-30T06:03:54.292Z,101168.72
2023-01-30T06:06:23.677Z,101164.25
2023-01-30T06:08:54.775Z,101157.88
2023-01-30T06:11:24.244Z,101159.47
2023-01-30T06:13:53.823Z,101158.88
2023-01-30T06:16:21.995Z,101159.94
2023-01-30T06:18:51.619Z,101170.72
2023-01-30T06:21:19.517Z,101169.69
2023-01-30T06:23:47.897Z,101169.69
2023-01-30T06:26:15.985Z,101183.22
2023-01-30T06:28:44.496Z,101170.34
2023-01-30T06:31:12.597Z,101156.75
2023-01-30T06:33:40.950Z,101173.56
2023-01-30T06:36:09.263Z,101177.06
2023-01-30T06:38:37.601Z,101183.16
2023-01-30T06:41:05.910Z,101179.88
2023-01-30T06:43:36.008Z,101180.75
2023-01-30T06:46:04.128Z,101189.31
2023-01-30T06:48:32.828Z,101170.97
2023-01-30T06:51:00.806Z,101175.03
2023-01-30T06:53:31.278Z,101176.94
2023-01-30T06:56:00.150Z,101179.22
2023-01-30T06:58:28.647Z,101172.31
2023-01-30T07:00:56.814Z,101176.38
2023-01-30T07:03:25.226Z,101188.19
2023-01-30T07:05:53.402Z,101198.25
2023-01-30T07:08:24.308Z,101191.13
2023-01-30T07:10:52.412Z,101166.16
2023-01-30T07:13:20.802Z,101159.09
2023-01-30T07:15:48.872Z,101158.84
2023-01-30T07:18:17.276Z,101150.38
2023-01-30T07:20:51.188Z,101141.19
2023-01-30T07:23:20.807Z,101154.53
2023-01-30T07:25:48.678Z,101165.53
2023-01-30T07:29:07.196Z,101164.38
2023-01-30T07:31:35.197Z,101164.72
2023-01-30T07:34:03.653Z,101160.47
2023-01-30T07:36:33.863Z,101164.53
2023-01-30T07:39:04.444Z,101168.19
2023-01-30T07:41:32.391Z,101159.09
2023-01-30T07:44:00.930Z,101157.16
2023-01-30T07:46:35.337Z,101158.75
2023-01-30T07:49:06.276Z,101160.66
2023-01-30T07:51:34.240Z,101160.22
2023-01-30T07:54:04.390Z,101163.38
2023-01-30T07:56:32.402Z,101164.53
2023-01-30T07:59:00.741Z,101169.06
2023-01-30T08:01:29.001Z,101171.91
2023-01-30T08:03:57.503Z,101172.16
2023-01-30T08:06:25.585Z,101162.78
2023-01-30T08:08:54.393Z,101159.78
2023-01-30T08:11:22.456Z,101144.00
2023-01-30T08:13:50.930Z,101144.66
2023-01-30T08:16:18.969Z,101138.03
2023-01-30T08:18:47.292Z,101137.53
2023-01-30T08:21:15.304Z,101128.91
2023-01-30T08:23:43.929Z,101114.47
2023-01-30T08:26:11.904Z,101108.28
2023-01-30T08:28:40.594Z,101114.00
2023-01-30T08:31:12.867Z,101109.75
2023-01-30T08:33:41.311Z,101102.09
2023-01-30T08:36:09.905Z,101110.38
2023-01-30T08:38:38.319Z,101111.53
2023-01-30T08:41:08.489Z,101105.41
2023-01-30T08:43:37.160Z,101114.00
2023-01-30T08:46:05.265Z,101115.31
2023-01-30T08:48:47.430Z,101134.81
2023-01-30T08:51:16.866Z,101129.19
2023-01-30T08:53:46.135Z,101118.19
2023-01-30T08:56:14.550Z,101110.97
2023-01-30T08:58:44.071Z,101123.50
2023-01-30T09:01:12.335Z,101118.31
2023-01-30T09:03:40.923Z,101122.22
2023-01-30T09:06:09.663Z,101129.63
2023-01-30T09:08:38.081Z,101121.50
2023-01-30T09:11:06.415Z,101121.50
2023-01-30T09:13:35.858Z,101105.53
2023-01-30T09:16:07.333Z,101105.91
2023-01-30T09:18:39.731Z,101102.63
2023-01-30T09:21:08.190Z,101092.84
2023-01-30T09:23:37.270Z,101091.06
2023-01-30T09:26:06.930Z,101100.81
2023-01-30T09:28:35.643Z,101089.97
2023-01-30T09:31:03.900Z,101086.16
2023-01-30T09:33:32.381Z,101090.09
2023-01-30T09:36:00.578Z,101082.81
2023-01-30T09:38:28.873Z,101082.75
2023-01-30T09:41:00.033Z,101083.84
2023-01-30T09:43:37.494Z,101089.44
2023-01-30T09:46:22.574Z,101090.69
2023-01-30T09:49:15.629Z,101078.78
2023-01-30T09:52:26.380Z,101073.97
2023-01-30T09:55:35.840Z,101072.88
2023-01-30T09:58:03.913Z,101067.06
2023-01-30T10:00:44.739Z,101060.88
2023-01-30T10:03:20.123Z,101073.88
2023-01-30T10:06:03.083Z,101069.44
2023-01-30T10:08:50.399Z,101063.38
2023-01-30T10:11:41.036Z,101051.78
2023-01-30T10:14:15.078Z,101054.41
2023-01-30T10:17:01.524Z,101036.22
2023-01-30T10:20:06.989Z,101025.59
2023-01-30T10:22:52.899Z,101024.56
2023-01-30T10:25:39.582Z,101013.00
2023-01-30T10:28:24.428Z,101014.91
2023-01-30T10:31:01.190Z,101004.69
2023-01-30T10:33:35.967Z,100998.81
2023-01-30T10:36:23.840Z,100996.00
2023-01-30T10:38:53.548Z,100977.16
2023-01-30T10:41:27.218Z,100978.13
2023-01-30T10:44:11.555Z,100987.06
2023-01-30T10:47:22.928Z,100969.53
2023-01-30T10:50:06.199Z,100961.72
2023-01-30T10:52:42.116Z,100958.91
2023-01-30T10:55:38.004Z,100959.13
2023-01-30T10:58:18.241Z,100958.19
2023-01-30T11:01:10.628Z,100954.94
2023-01-30T11:03:48.648Z,100959.16
2023-01-30T11:06:24.092Z,100950.47
2023-01-30T11:08:54.199Z,100944.94
2023-01-30T11:11:30.714Z,100923.19
2023-01-30T11:14:10.652Z,100921.47
2023-01-30T11:16:52.197Z,100908.16
2023-01-30T11:19:34.932Z,100895.44
2023-01-30T11:22:06.253Z,100901.34
2023-01-30T11:24:43.963Z,100898.28
2023-01-30T11:27:19.526Z,100886.19
2023-01-30T11:29:48.621Z,100887.16
2023-01-30T11:32:29.030Z,100876.72
2023-01-30T11:35:20.708Z,100865.09
2023-01-30T11:37:51.570Z,100849.34
2023-01-30T11:40:25.975Z,100861.97
2023-01-30T11:43:03.611Z,100859.91
2023-01-30T11:45:39.414Z,100842.75
2023-01-30T11:48:33.143Z,100842.16
2023-01-30T11:51:07.136Z,100868.56
2023-01-30T11:54:04.628Z,100850.31
2023-01-30T11:56:57.230Z,100830.94
2023-01-30T11:59:31.123Z,100831.22
2023-01-30T12:02:17.433Z,100823.94
2023-01-30T12:04:47.493Z,100809.06
2023-01-30T12:07:24.059Z,100798.53
2023-01-30T12:09:54.417Z,100786.06
2023-01-30T12:12:47.956Z,100777.94
2023-01-30T12:15:17.364Z,100764.09
2023-01-30T12:18:13.160Z,100772.81
2023-01-30T12:20:47.473Z,100796.53
2023-01-30T12:23:28.021Z,100780.13
2023-01-30T12:26:09.381Z,100759.97
2023-01-30T12:29:01.125Z,100757.16
2023-01-30T12:31:49.233Z,100748.34
2023-01-30T12:34:17.551Z,100735.53
2023-01-30T12:37:17.728Z,100747.66
2023-01-30T12:39:51.855Z,100740.06
2023-01-30T12:42:57.462Z,100731.13
2023-01-30T12:45:57.313Z,100723.41
2023-01-30T12:48:48.308Z,100719.97
2023-01-30T12:51:44.722Z,100721.88
2023-01-30T12:54:40.940Z,100720.19
2023-01-30T12:57:11.611Z,100724.34
2023-01-30T12:59:52.950Z,100726.56
2023-01-30T13:03:03.199Z,100708.63
2023-01-30T13:05:31.753Z,100680.91
2023-01-30T13:08:27.251Z,100655.81
2023-01-30T13:11:02.412Z,100657.41
2023-01-30T13:13:30.444Z,100675.97
2023-01-30T13:16:20.846Z,100671.84
2023-01-30T13:19:07.961Z,100673.06
2023-01-30T13:22:01.080Z,100675.28
2023-01-30T13:24:51.510Z,100664.44
2023-01-30T13:27:23.164Z,100674.53
2023-01-30T13:29:53.434Z,100676.72
2023-01-30T13:32:43.007Z,100670.38
2023-01-30T13:35:25.147Z,100650.91
2023-01-30T13:37:54.847Z,100653.06
2023-01-30T13:40:26.646Z,100642.88
2023-01-30T13:43:12.243Z,100636.41
2023-01-30T13:45:45.825Z,100637.63
2023-01-30T13:48:25.752Z,100638.91
2023-01-30T13:51:17.806Z,100628.47
2023-01-30T13:54:02.021Z,100630.00
2023-01-30T13:56:41.821Z,100625.97
2023-01-30T13:59:41.782Z,100621.16
2023-01-30T14:02:26.008Z,100594.66
2023-01-30T14:04:56.829Z,100608.38
2023-01-30T14:07:56.556Z,100614.69
2023-01-30T14:10:28.020Z,100608.44
2023-01-30T14:12:56.025Z,100603.06
2023-01-30T14:15:29.209Z,100611.03
2023-01-30T14:18:01.171Z,100606.09
2023-01-30T14:20:32.766Z,100591.91
2023-01-30T14:23:22.934Z,100593.59
2023-01-30T14:25:53.699Z,100586.28
2023-01-30T14:28:21.597Z,100587.00
2023-01-30T14:30:56.810Z,100584.75
2023-01-30T14:33:24.758Z,100583.25
2023-01-30T14:35:58.984Z,100580.06
2023-01-30T14:38:37.456Z,100574.59
2023-01-30T14:41:09.779Z,100579.72
2023-01-30T14:43:43.659Z,100582.47
2023-01-30T14:46:19.313Z,100585.09
2023-01-30T14:48:57.022Z,100586.88
2023-01-30T14:51:40.645Z,100568.63
2023-01-30T14:54:15.284Z,100570.53
2023-01-30T14:57:03.653Z,100581.00
2023-01-30T15:00:14.169Z,100589.56
2023-01-30T15:02:51.696Z,100589.66
2023-01-30T15:05:33.573Z,100581.41
2023-01-30T15:08:09.702Z,100578.06
2023-01-30T15:11:19.628Z,100590.13
2023-01-30T15:14:17.444Z,100586.91
2023-01-30T15:17:09.629Z,100586.16
2023-01-30T15:19:40.610Z,100605.47
2023-01-30T15:22:42.103Z,100599.41
2023-01-30T15:25:19.171Z,100592.56
2023-01-30T15:28:03.416Z,100576.44
2023-01-30T15:31:02.642Z,100572.78
2023-01-30T15:33:32.256Z,100580.25
2023-01-30T15:36:19.665Z,100589.69
2023-01-30T15:38:56.640Z,100596.03
2023-01-30T15:41:25.439Z,100592.75
2023-01-30T15:44:29.699Z,100599.94
2023-01-30T15:47:02.434Z,100592.44
2023-01-30T15:50:03.651Z,100588.97
2023-01-30T15:52:54.462Z,100588.44
2023-01-30T15:55:48.777Z,100587.44
2023-01-30T15:58:20.949Z,100595.66
2023-01-30T16:01:00.879Z,100599.47
2023-01-30T16:03:36.954Z,100597.03
2023-01-30T16:06:05.400Z,100594.16
2023-01-30T16:08:36.506Z,100596.47
2023-01-30T16:11:04.630Z,100607.88
2023-01-30T16:13:35.850Z,100606.63
2023-01-30T16:16:18.746Z,100618.19
2023-01-30T16:18:56.201Z,100614.22
2023-01-30T16:21:34.409Z,100602.75
2023-01-30T16:24:07.528Z,100604.03
2023-01-30T16:26:36.844Z,100604.25
2023-01-30T16:29:08.139Z,100600.94
2023-01-30T16:31:41.288Z,100608.38
2023-01-30T16:34:35.723Z,100614.56
2023-01-30T16:37:18.631Z,100620.91
2023-01-30T16:40:04.698Z,100618.88
2023-01-30T16:42:32.638Z,100616.81
2023-01-30T16:45:13.253Z,100619.22
2023-01-30T16:47:41.341Z,100611.50
2023-01-30T16:50:23.197Z,100629.53
2023-01-30T16:52:55.097Z,100619.69
2023-01-30T16:55:27.238Z,100620.50
2023-01-30T16:58:00.522Z,100631.41
2023-01-30T17:00:38.316Z,100622.72
2023-01-30T17:03:20.512Z,100619.16
2023-01-30T17:05:49.801Z,100628.03
2023-01-30T17:08:45.409Z,100626.91
2023-01-30T17:11:36.669Z,100634.63
2023-01-30T17:14:24.892Z,100628.81
2023-01-30T17:17:01.811Z,100621.88
2023-01-30T17:19:30.309Z,100619.69
2023-01-30T17:22:01.667Z,100616.03
2023-01-30T17:24:29.719Z,100626.41
2023-01-30T17:27:04.352Z,100617.16
2023-01-30T17:29:43.283Z,100623.03
2023-01-30T17:32:15.502Z,100623.03
2023-01-30T17:34:43.512Z,100619.41
2023-01-30T17:37:21.527Z,100628.47
2023-01-30T17:39:50.101Z,100640.50
2023-01-30T17:42:18.837Z,100629.84
2023-01-30T17:44:47.097Z,100627.56
2023-01-30T17:47:15.021Z,100632.41
2023-01-30T17:49:44.279Z,100641.66
2023-01-30T17:52:14.007Z,100650.84
2023-01-30T17:54:42.320Z,100651.09
2023-01-30T17:57:16.417Z,100645.59
2023-01-30T17:59:44.678Z,100649.31
2023-01-30T18:02:13.479Z,100647.38
2023-01-30T18:04:41.860Z,100639.78
2023-01-30T18:07:14.539Z,100647.75
2023-01-30T18:09:43.289Z,100657.50
2023-01-30T18:12:11.273Z,100657.13
2023-01-30T18:14:39.538Z,100656.22
2023-01-30T18:17:07.729Z,100650.88
2023-01-30T18:19:36.109Z,100644.81
2023-01-30T18:22:04.314Z,100647.59
2023-01-30T18:24:34.529Z,100642.16
2023-01-30T18:27:02.469Z,100636.00
2023-01-30T18:29:30.773Z,100644.66
2023-01-30T18:32:05.166Z,100646.44
2023-01-30T18:34:33.785Z,100648.56
2023-01-30T18:37:01.808Z,100642.03
2023-01-30T18:39:32.070Z,100648.72
2023-01-30T18:42:02.154Z,100637.94
2023-01-30T18:44:30.617Z,100640.88
2023-01-30T18:46:58.728Z,100646.97
2023-01-30T18:49:27.184Z,100649.09
2023-01-30T18:51:55.343Z,100651.69
2023-01-30T18:54:23.808Z,100655.78
2023-01-30T18:56:51.986Z,100659.66
2023-01-30T18:59:20.422Z,100646.22
2023-01-30T19:01:48.494Z,100653.19
2023-01-30T19:04:16.981Z,100658.28
2023-01-30T19:06:45.002Z,100645.72
2023-01-30T19:09:16.205Z,100649.69
2023-01-30T19:12:02.803Z,100647.13
2023-01-30T19:14:31.181Z,100649.44
2023-01-30T19:16:59.213Z,100655.91
2023-01-30T19:19:28.560Z,100656.78
2023-01-30T19:21:56.503Z,100669.28
2023-01-30T19:24:25.132Z,100669.06
2023-01-30T19:26:53.306Z,100677.03
2023-01-30T19:29:21.813Z,100692.41
2023-01-30T19:31:50.300Z,100697.25
2023-01-30T19:34:18.731Z,100700.88
2023-01-30T19:36:47.083Z,100698.47
2023-01-30T19:39:15.442Z,100717.03
2023-01-30T19:41:43.387Z,100733.00
2023-01-30T19:44:12.180Z,100731.66
2023-01-30T19:46:40.159Z,100731.41
2023-01-30T19:49:11.632Z,100721.72
2023-01-30T19:51:41.020Z,100721.16
2023-01-30T19:54:12.267Z,100724.84
2023-01-30T19:56:42.094Z,100724.81
2023-01-30T19:59:13.370Z,100718.66
2023-01-30T20:01:41.405Z,100731.31
2023-01-30T20:04:09.979Z,100741.88
2023-01-30T20:06:43.426Z,100729.50
2023-01-30T20:09:12.923Z,100751.56
2023-01-30T20:11:42.056Z,100749.72
2023-01-30T20:14:11.347Z,100732.25
2023-01-30T20:16:40.068Z,100765.16
2023-01-30T20:19:13.343Z,100743.31
2023-01-30T20:21:42.272Z,100738.81
2023-01-30T20:24:13.528Z,100758.34
2023-01-30T20:26:42.476Z,100752.88
2023-01-30T20:29:12.167Z,100753.16
2023-01-30T20:31:40.245Z,100767.81
2023-01-30T20:34:12.620Z,100785.81
2023-01-30T20:36:41.093Z,100773.91
2023-01-30T20:39:09.524Z,100782.41
2023-01-30T20:41:38.054Z,100797.31
2023-01-30T20:44:09.109Z,100798.75
2023-01-30T20:46:41.837Z,100793.91
2023-01-30T20:49:21.439Z,100800.41
2023-01-30T20:51:52.056Z,100814.75
2023-01-30T20:54:22.768Z,100825.44
2023-01-30T20:56:53.643Z,100817.91
2023-01-30T20:59:24.541Z,100827.03
2023-01-30T21:01:52.989Z,100825.19
2023-01-30T21:04:24.653Z,100839.44
2023-01-30T21:06:53.066Z,100831.06
2023-01-30T21:09:23.405Z,100826.56
2023-01-30T21:11:53.224Z,100832.91
2023-01-30T21:14:22.070Z,100831.31
2023-01-30T21:16:50.137Z,100842.94
2023-01-30T21:19:18.838Z,100855.09
2023-01-30T21:21:51.625Z,100856.22
2023-01-30T21:24:24.053Z,100855.16
2023-01-30T21:26:53.274Z,100861.78
2023-01-30T21:29:25.679Z,100860.47
2023-01-30T21:31:54.439Z,100879.31
2023-01-30T21:34:23.479Z,100880.34
2023-01-30T21:37:10.188Z,100871.88
2023-01-30T21:39:56.860Z,100873.97
2023-01-30T21:43:03.359Z,100884.31
2023-01-30T21:45:32.065Z,100893.84
2023-01-30T21:47:59.954Z,100896.53
2023-01-30T21:50:29.298Z,100905.78
2023-01-30T21:52:57.380Z,100896.78
2023-01-30T21:55:25.933Z,100914.00
2023-01-30T21:57:54.032Z,100915.28
2023-01-30T22:00:22.464Z,100912.91
2023-01-30T22:02:50.873Z,100920.06
2023-01-30T22:05:19.683Z,100925.88
2023-01-30T22:07:47.905Z,100929.06
2023-01-30T22:10:16.548Z,100931.69
2023-01-30T22:12:44.431Z,100934.34
2023-01-30T22:15:12.763Z,100944.41
2023-01-30T22:17:40.715Z,100945.72
2023-01-30T22:20:11.057Z,100956.56
2023-01-30T22:22:39.705Z,100944.38
2023-01-30T22:25:09.604Z,100953.38
2023-01-30T22:27:38.458Z,100962.09
2023-01-30T22:30:07.179Z,100965.81
2023-01-30T22:32:35.083Z,100967.13
2023-01-30T22:35:03.447Z,100965.28
2023-01-30T22:37:31.341Z,100968.19
2023-01-30T22:40:00.689Z,100983.25
2023-01-30T22:42:28.634Z,100987.44
2023-01-30T22:44:56.866Z,100987.47
2023-01-30T22:47:24.884Z,101002.84
2023-01-30T22:49:53.231Z,101002.22
2023-01-30T22:52:21.093Z,101002.56
2023-01-30T22:54:49.423Z,101017.00
2023-01-30T22:57:17.405Z,101007.72
2023-01-30T22:59:45.674Z,101014.94
2023-01-30T23:02:13.654Z,101017.16
2023-01-30T23:04:41.971Z,101018.13
2023-01-30T23:07:14.077Z,101023.66
2023-01-30T23:09:42.403Z,101029.44
2023-01-30T23:12:29.166Z,101043.50
2023-01-30T23:14:57.493Z,101043.50
2023-01-30T23:17:44.016Z,101041.41
2023-01-30T23:20:13.991Z,101035.28
2023-01-30T23:22:42.025Z,101049.06
2023-01-30T23:25:11.326Z,101050.81
2023-01-30T23:27:39.204Z,101047.16
2023-01-30T23:30:09.399Z,101061.56
2023-01-30T23:32:38.098Z,101056.38
2023-01-30T23:35:07.188Z,101056.34
2023-01-30T23:37:53.350Z,101062.91
2023-01-30T23:40:21.598Z,101065.84
2023-01-30T23:42:49.669Z,101069.78
2023-01-30T23:45:18.231Z,101074.50
2023-01-30T23:47:46.361Z,101071.25
2023-01-30T23:50:16.238Z,101064.13
2023-01-30T23:52:44.828Z,101073.56
2023-01-30T23:55:13.250Z,101074.41
2023-01-30T23:57:41.239Z,101087.78
